createdAt,value
2022-10-26T00:01:08.689Z,8.31
2022-10-26T00:03:36.883Z,8.19
2022-10-26T00:06:20.022Z,8.05
2022-10-26T00:08:48.141Z,8.08
2022-10-26T00:11:16.191Z,8.10
2022-10-26T00:13:43.623Z,8.11
2022-10-26T00:16:14.750Z,8.09
2022-10-26T00:18:41.375Z,8.14
2022-10-26T00:21:10.270Z,8.16
2022-10-26T00:23:37.513Z,8.21
2022-10-26T00:26:04.630Z,8.26
2022-10-26T00:28:31.733Z,8.38
2022-10-26T00:31:13.653Z,8.40
2022-10-26T00:33:40.856Z,8.44
2022-10-26T00:36:09.870Z,8.44
2022-10-26T00:38:37.701Z,8.49
2022-10-26T00:41:04.615Z,8.50
2022-10-26T00:43:30.983Z,8.57
2022-10-26T00:45:59.844Z,8.56
2022-10-26T00:48:34.084Z,8.61
2022-10-26T00:51:08.310Z,8.64
2022-10-26T00:53:35.954Z,8.69
2022-10-26T00:56:03.475Z,8.77
2022-10-26T00:58:30.536Z,8.76
2022-10-26T01:00:57.029Z,8.76
2022-10-26T01:03:27.832Z,8.82
2022-10-26T01:05:58.028Z,8.77
2022-10-26T01:08:28.104Z,8.79
2022-10-26T01:10:58.283Z,8.81
2022-10-26T01:13:30.804Z,8.81
2022-10-26T01:16:22.408Z,8.82
2022-10-26T01:19:38.380Z,8.81
2022-10-26T01:22:29.302Z,8.75
2022-10-26T01:25:25.878Z,8.67
2022-10-26T01:27:54.081Z,8.81
2022-10-26T01:30:28.838Z,8.84
2022-10-26T01:33:09.278Z,8.84
2022-10-26T01:36:19.367Z,8.87
2022-10-26T01:39:04.834Z,8.90
2022-10-26T01:41:37.674Z,8.97
2022-10-26T01:44:13.834Z,9.04
2022-10-26T01:46:46.337Z,8.93
2022-10-26T01:49:17.147Z,8.97
2022-10-26T01:51:48.471Z,8.96
2022-10-26T01:54:15.407Z,8.98
2022-10-26T01:56:48.695Z,9.00
2022-10-26T02:00:01.924Z,9.10
2022-10-26T02:03:09.859Z,9.10
2022-10-26T02:06:07.743Z,9.09
2022-10-26T02:09:15.730Z,9.04
2022-10-26T02:11:51.164Z,8.95
2022-10-26T02:14:49.470Z,8.96
2022-10-26T02:17:21.768Z,9.00
2022-10-26T02:20:03.502Z,9.00
2022-10-26T02:22:40.452Z,9.06
2022-10-26T02:25:15.652Z,9.17
2022-10-26T02:27:51.051Z,9.18
2022-10-26T02:30:18.711Z,9.21
2022-10-26T02:32:52.412Z,9.29
2022-10-26T02:35:27.478Z,9.25
2022-10-26T02:37:59.560Z,9.32
2022-10-26T02:40:29.140Z,9.26
2022-10-26T02:43:03.110Z,9.22
2022-10-26T02:45:38.284Z,9.30
2022-10-26T02:48:06.014Z,9.35
2022-10-26T02:50:49.167Z,9.41
2022-10-26T02:53:27.619Z,9.43
2022-10-26T02:55:54.352Z,9.54
2022-10-26T02:58:33.412Z,9.58
2022-10-26T03:01:00.402Z,9.63
2022-10-26T03:03:26.895Z,9.72
2022-10-26T03:05:53.352Z,9.81
2022-10-26T03:08:19.847Z,9.82
2022-10-26T03:10:46.596Z,9.74
2022-10-26T03:13:13.955Z,9.79
2022-10-26T03:15:40.933Z,9.79
2022-10-26T03:18:08.048Z,9.81
2022-10-26T03:20:35.026Z,9.75
2022-10-26T03:23:01.444Z,9.72
2022-10-26T03:25:28.005Z,9.77
2022-10-26T03:28:02.621Z,9.75
2022-10-26T03:30:31.384Z,9.71
2022-10-26T03:32:58.041Z,9.80
2022-10-26T03:35:24.694Z,9.85
2022-10-26T03:37:51.674Z,9.82
2022-10-26T03:40:18.314Z,9.77
2022-10-26T03:42:44.750Z,9.79
2022-10-26T03:45:11.544Z,9.81
2022-10-26T03:47:49.166Z,9.86
2022-10-26T03:50:20.271Z,9.98
2022-10-26T03:52:48.733Z,10.06
2022-10-26T03:55:16.031Z,10.05
2022-10-26T03:57:43.931Z,10.03
2022-10-26T04:00:17.266Z,10.02
2022-10-26T04:02:49.780Z,10.03
2022-10-26T04:05:16.619Z,9.98
2022-10-26T04:07:43.539Z,9.98
2022-10-26T04:10:10.892Z,9.89
2022-10-26T04:12:38.614Z,9.93
2022-10-26T04:15:07.262Z,10.06
2022-10-26T04:17:34.415Z,10.12
2022-10-26T04:20:00.934Z,10.16
2022-10-26T04:22:27.415Z,10.18
2022-10-26T04:24:53.893Z,10.16
2022-10-26T04:27:20.311Z,10.18
2022-10-26T04:29:46.791Z,10.10
2022-10-26T04:32:13.212Z,10.03
2022-10-26T04:34:39.647Z,9.94
2022-10-26T04:37:06.106Z,9.85
2022-10-26T04:39:32.546Z,9.86
2022-10-26T04:41:58.985Z,9.94
2022-10-26T04:44:25.434Z,10.02
2022-10-26T04:46:51.887Z,10.07
2022-10-26T04:49:18.371Z,10.13
2022-10-26T04:51:44.802Z,10.14
2022-10-26T04:54:11.327Z,10.10
2022-10-26T04:56:37.888Z,10.21
2022-10-26T04:59:04.376Z,10.21
2022-10-26T05:01:31.840Z,10.21
2022-10-26T05:03:58.404Z,10.22
2022-10-26T05:06:25.115Z,10.23
2022-10-26T05:08:51.551Z,10.31
2022-10-26T05:11:18.051Z,10.40
2022-10-26T05:13:44.485Z,10.47
2022-10-26T05:16:10.939Z,10.46
2022-10-26T05:18:37.387Z,10.45
2022-10-26T05:21:03.926Z,10.48
2022-10-26T05:23:30.382Z,10.56
2022-10-26T05:25:56.898Z,10.59
2022-10-26T05:28:23.410Z,10.63
2022-10-26T05:30:49.868Z,10.62
2022-10-26T05:33:16.450Z,10.60
2022-10-26T05:35:43.261Z,10.48
2022-10-26T05:38:15.322Z,10.47
2022-10-26T05:40:49.291Z,10.42
2022-10-26T05:43:15.811Z,10.35
2022-10-26T05:45:42.370Z,10.44
2022-10-26T05:48:08.820Z,10.53
2022-10-26T05:50:35.463Z,10.59
2022-10-26T05:53:02.188Z,10.67
2022-10-26T05:55:29.210Z,10.74
2022-10-26T05:57:56.209Z,10.79
2022-10-26T06:00:27.115Z,10.71
2022-10-26T06:03:17.871Z,10.73
2022-10-26T06:05:57.299Z,10.69
2022-10-26T06:08:27.586Z,10.62
2022-10-26T06:10:56.943Z,10.68
2022-10-26T06:13:23.739Z,10.77
2022-10-26T06:16:33.578Z,10.80
2022-10-26T06:19:22.689Z,10.86
2022-10-26T06:22:17.450Z,10.72
2022-10-26T06:25:04.510Z,10.74
2022-10-26T06:27:48.064Z,10.57
2022-10-26T06:30:14.528Z,10.85
2022-10-26T06:32:46.243Z,10.89
2022-10-26T06:35:22.750Z,10.87
2022-10-26T06:37:50.907Z,10.92
2022-10-26T06:40:19.094Z,11.06
2022-10-26T06:42:46.042Z,11.12
2022-10-26T06:45:15.601Z,11.05
2022-10-26T06:47:48.007Z,11.02
2022-10-26T06:50:40.165Z,11.04
2022-10-26T06:56:13.246Z,11.15
2022-10-26T06:58:41.150Z,11.18
2022-10-26T07:01:11.444Z,11.26
2022-10-26T07:03:38.296Z,11.30
2022-10-26T07:06:06.080Z,11.38
2022-10-26T07:08:32.890Z,11.46
2022-10-26T07:10:59.412Z,11.51
2022-10-26T07:13:25.838Z,11.49
2022-10-26T07:15:52.284Z,11.47
2022-10-26T07:18:18.743Z,11.48
2022-10-26T07:20:45.197Z,11.59
2022-10-26T07:23:11.866Z,11.66
2022-10-26T07:25:40.267Z,11.62
2022-10-26T07:28:10.248Z,11.66
2022-10-26T07:30:39.706Z,11.73
2022-10-26T07:33:14.359Z,11.72
2022-10-26T07:35:41.427Z,11.68
2022-10-26T07:38:08.815Z,11.59
2022-10-26T07:40:37.054Z,11.58
2022-10-26T07:43:04.167Z,11.69
2022-10-26T07:45:30.832Z,11.77
2022-10-26T07:47:57.928Z,11.80
2022-10-26T07:50:25.384Z,11.79
2022-10-26T07:52:52.070Z,11.79
2022-10-26T07:55:19.275Z,11.88
2022-10-26T07:57:47.523Z,11.88
2022-10-26T08:00:17.528Z,11.83
2022-10-26T08:02:44.028Z,11.84
2022-10-26T08:05:10.511Z,11.89
2022-10-26T08:07:42.627Z,12.00
2022-10-26T08:10:10.957Z,12.17
2022-10-26T08:12:37.731Z,12.27
2022-10-26T08:15:05.530Z,12.35
2022-10-26T08:17:32.112Z,12.43
2022-10-26T08:19:58.994Z,12.44
2022-10-26T08:22:25.954Z,12.41
2022-10-26T08:24:52.383Z,12.42
2022-10-26T08:27:18.847Z,12.54
2022-10-26T08:29:45.339Z,12.59
2022-10-26T08:32:11.816Z,12.71
2022-10-26T08:34:38.297Z,12.83
2022-10-26T08:37:04.758Z,12.84
2022-10-26T08:39:31.213Z,12.86
2022-10-26T08:42:12.341Z,12.87
2022-10-26T08:44:47.635Z,13.02
2022-10-26T08:47:20.745Z,13.05
2022-10-26T08:50:05.634Z,13.02
2022-10-26T08:52:53.103Z,13.02
2022-10-26T08:55:28.939Z,12.95
2022-10-26T08:57:56.751Z,12.89
2022-10-26T09:00:27.045Z,12.85
2022-10-26T09:02:54.254Z,12.87
2022-10-26T09:05:43.244Z,12.86
2022-10-26T09:08:18.095Z,12.94
2022-10-26T09:11:13.474Z,12.93
2022-10-26T09:14:04.616Z,12.94
2022-10-26T09:17:22.859Z,12.85
2022-10-26T09:20:20.212Z,12.78
2022-10-26T09:23:10.434Z,12.76
2022-10-26T09:25:41.508Z,12.81
2022-10-26T09:28:17.793Z,12.86
2022-10-26T09:30:46.479Z,12.91
2022-10-26T09:33:19.819Z,12.89
2022-10-26T09:36:00.188Z,12.84
2022-10-26T09:38:41.734Z,12.95
2022-10-26T09:41:33.183Z,13.00
2022-10-26T09:44:19.108Z,13.02
2022-10-26T09:47:28.933Z,12.98
2022-10-26T09:50:06.840Z,13.12
2022-10-26T09:52:33.471Z,13.24
2022-10-26T09:54:59.979Z,13.29
2022-10-26T09:57:26.771Z,13.33
2022-10-26T09:59:55.582Z,13.40
2022-10-26T10:02:48.826Z,13.32
2022-10-26T10:05:39.065Z,13.32
2022-10-26T10:08:23.989Z,13.39
2022-10-26T10:11:03.583Z,13.52
2022-10-26T10:13:34.308Z,13.61
2022-10-26T10:16:22.942Z,13.66
2022-10-26T10:18:59.122Z,13.69
2022-10-26T10:21:39.013Z,13.70
2022-10-26T10:24:27.339Z,13.72
2022-10-26T10:27:15.465Z,13.68
2022-10-26T10:30:01.407Z,13.76
2022-10-26T10:32:35.634Z,13.73
2022-10-26T10:35:25.062Z,13.67
2022-10-26T10:37:52.598Z,13.75
2022-10-26T10:40:27.047Z,13.81
2022-10-26T10:43:11.141Z,13.88
2022-10-26T10:45:38.564Z,13.93
2022-10-26T10:48:26.078Z,13.94
2022-10-26T10:51:12.961Z,14.00
2022-10-26T10:53:50.433Z,14.08
2022-10-26T10:56:40.234Z,14.15
2022-10-26T10:59:51.239Z,14.26
2022-10-26T11:02:32.250Z,14.34
2022-10-26T11:05:35.828Z,14.33
2022-10-26T11:08:12.816Z,14.37
2022-10-26T11:10:48.538Z,14.32
2022-10-26T11:13:31.300Z,14.31
2022-10-26T11:16:05.872Z,14.36
2022-10-26T11:18:44.164Z,14.42
2022-10-26T11:21:31.565Z,14.45
2022-10-26T11:24:39.183Z,14.51
2022-10-26T11:27:20.183Z,14.55
2022-10-26T11:30:13.616Z,14.66
2022-10-26T11:33:18.127Z,14.70
2022-10-26T11:35:55.071Z,14.92
2022-10-26T11:38:56.272Z,15.07
2022-10-26T11:41:55.618Z,15.12
2022-10-26T11:44:40.999Z,15.10
2022-10-26T11:47:18.372Z,15.15
2022-10-26T11:50:02.368Z,15.19
2022-10-26T11:52:43.204Z,15.25
2022-10-26T11:55:11.564Z,15.33
2022-10-26T11:57:40.243Z,15.38
2022-10-26T12:00:27.781Z,15.35
2022-10-26T12:03:08.552Z,15.37
2022-10-26T12:05:48.395Z,15.41
2022-10-26T12:08:24.654Z,15.40
2022-10-26T12:11:19.937Z,15.31
2022-10-26T12:14:19.466Z,15.29
2022-10-26T12:16:54.770Z,15.30
2022-10-26T12:19:35.072Z,15.40
2022-10-26T12:22:02.775Z,15.58
2022-10-26T12:24:35.431Z,15.68
2022-10-26T12:27:05.125Z,15.77
2022-10-26T12:29:49.195Z,15.79
2022-10-26T12:32:30.708Z,15.78
2022-10-26T12:35:01.357Z,15.91
2022-10-26T12:37:37.698Z,15.89
2022-10-26T12:40:33.075Z,15.48
2022-10-26T12:43:14.556Z,15.67
2022-10-26T12:45:46.600Z,15.75
2022-10-26T12:48:39.800Z,15.76
2022-10-26T12:51:27.754Z,15.70
2022-10-26T12:54:03.829Z,15.70
2022-10-26T12:57:17.926Z,15.71
2022-10-26T13:00:05.771Z,15.65
2022-10-26T13:03:15.470Z,15.74
2022-10-26T13:06:23.403Z,15.72
2022-10-26T13:08:58.631Z,15.51
2022-10-26T13:11:46.059Z,15.75
2022-10-26T13:14:51.348Z,15.79
2022-10-26T13:17:31.531Z,15.96
2022-10-26T13:20:05.624Z,16.13
2022-10-26T13:22:33.252Z,16.19
2022-10-26T13:25:06.238Z,16.28
2022-10-26T13:27:32.601Z,16.42
2022-10-26T13:30:04.858Z,16.52
2022-10-26T13:32:40.089Z,16.54
2022-10-26T13:35:14.376Z,16.54
2022-10-26T13:37:49.478Z,16.58
2022-10-26T13:40:20.789Z,16.62
2022-10-26T13:43:06.015Z,16.60
2022-10-26T13:45:53.595Z,16.71
2022-10-26T13:48:35.207Z,16.68
2022-10-26T13:51:13.521Z,16.77
2022-10-26T13:53:59.811Z,16.70
2022-10-26T13:56:43.841Z,16.71
2022-10-26T13:59:13.395Z,16.86
2022-10-26T14:01:40.291Z,17.00
2022-10-26T14:04:18.547Z,16.99
2022-10-26T14:06:51.435Z,17.03
2022-10-26T14:09:20.831Z,17.07
2022-10-26T14:12:00.685Z,17.14
2022-10-26T14:14:34.339Z,17.23
2022-10-26T14:17:02.178Z,17.32
2022-10-26T14:19:33.831Z,17.32
2022-10-26T14:22:01.057Z,17.36
2022-10-26T14:24:46.845Z,17.32
2022-10-26T14:27:27.858Z,17.20
2022-10-26T14:30:21.198Z,17.24
2022-10-26T14:32:42.167Z,17.19
2022-10-26T14:35:16.116Z,17.14
2022-10-26T14:37:56.279Z,17.11
2022-10-26T14:40:29.818Z,17.14
2022-10-26T14:43:00.455Z,17.14
2022-10-26T14:45:51.578Z,17.11
2022-10-26T14:48:33.894Z,17.08
2022-10-26T14:51:25.901Z,16.96
2022-10-26T14:53:59.385Z,16.96
2022-10-26T14:56:40.646Z,16.98
2022-10-26T14:59:20.617Z,16.90
2022-10-26T15:02:02.295Z,16.90
2022-10-26T15:04:42.098Z,16.84
2022-10-26T15:07:11.511Z,16.77
2022-10-26T15:09:45.394Z,16.69
2022-10-26T15:12:36.710Z,16.57
2022-10-26T15:15:15.388Z,16.50
2022-10-26T15:17:52.085Z,16.59
2022-10-26T15:20:23.353Z,16.57
2022-10-26T15:22:57.342Z,16.48
2022-10-26T15:25:28.691Z,16.46
2022-10-26T15:28:08.642Z,16.47
2022-10-26T15:30:35.192Z,16.46
2022-10-26T15:33:21.773Z,16.30
2022-10-26T15:35:48.412Z,16.23
2022-10-26T15:38:15.437Z,16.25
2022-10-26T15:40:43.851Z,16.26
2022-10-26T15:43:12.308Z,16.12
2022-10-26T15:45:52.399Z,16.06
2022-10-26T15:48:28.988Z,15.98
2022-10-26T15:50:56.251Z,15.82
2022-10-26T15:53:30.922Z,15.78
2022-10-26T15:56:00.008Z,15.75
2022-10-26T15:58:31.119Z,15.76
2022-10-26T16:00:57.651Z,15.70
2022-10-26T16:03:26.034Z,15.65
2022-10-26T16:06:02.116Z,15.52
2022-10-26T16:08:31.493Z,15.46
2022-10-26T16:10:58.212Z,15.43
2022-10-26T16:13:24.698Z,15.35
2022-10-26T16:15:51.146Z,15.29
2022-10-26T16:18:17.609Z,15.21
2022-10-26T16:20:46.226Z,15.15
2022-10-26T16:23:13.078Z,15.11
2022-10-26T16:25:45.910Z,15.05
2022-10-26T16:28:16.562Z,15.00
2022-10-26T16:30:43.648Z,14.97
2022-10-26T16:33:10.262Z,14.88
2022-10-26T16:35:36.722Z,14.71
2022-10-26T16:38:03.390Z,14.62
2022-10-26T16:40:29.863Z,14.49
2022-10-26T16:42:56.295Z,14.35
2022-10-26T16:45:22.856Z,14.32
2022-10-26T16:47:49.812Z,14.33
2022-10-26T16:50:16.689Z,14.30
2022-10-26T16:52:43.148Z,14.21
2022-10-26T16:55:09.876Z,14.14
2022-10-26T16:57:37.490Z,14.18
2022-10-26T17:00:06.625Z,14.15
2022-10-26T17:02:33.240Z,14.09
2022-10-26T17:05:02.725Z,14.06
2022-10-26T17:07:32.560Z,13.93
2022-10-26T17:09:59.042Z,13.85
2022-10-26T17:14:58.769Z,13.79
2022-10-26T17:17:25.256Z,13.61
2022-10-26T17:19:51.701Z,13.49
2022-10-26T17:22:18.157Z,13.48
2022-10-26T17:24:44.654Z,13.47
2022-10-26T17:27:11.254Z,13.46
2022-10-26T17:29:37.733Z,13.37
2022-10-26T17:32:04.277Z,13.32
2022-10-26T17:34:30.778Z,13.24
2022-10-26T17:36:57.230Z,13.17
2022-10-26T17:39:23.733Z,13.08
2022-10-26T17:41:50.219Z,12.93
2022-10-26T17:44:16.675Z,12.99
2022-10-26T17:46:43.128Z,13.09
2022-10-26T17:49:09.584Z,13.12
2022-10-26T17:51:36.072Z,13.00
2022-10-26T17:54:02.745Z,12.98
2022-10-26T17:56:33.013Z,12.88
2022-10-26T17:59:06.036Z,12.86
2022-10-26T18:01:33.003Z,12.87
2022-10-26T18:04:00.328Z,12.84
2022-10-26T18:06:26.957Z,12.76
2022-10-26T18:08:53.615Z,12.68
2022-10-26T18:11:26.973Z,12.54
2022-10-26T18:13:58.056Z,12.45
2022-10-26T18:16:27.799Z,12.50
2022-10-26T18:19:02.742Z,12.48
2022-10-26T18:21:33.587Z,12.45
2022-10-26T18:24:00.295Z,12.36
2022-10-26T18:26:29.161Z,12.41
2022-10-26T18:28:58.023Z,12.45
2022-10-26T18:31:26.821Z,12.27
2022-10-26T18:34:02.997Z,12.23
2022-10-26T18:36:30.837Z,12.25
2022-10-26T18:38:57.456Z,12.23
2022-10-26T18:41:26.156Z,12.26
2022-10-26T18:43:58.572Z,12.29
2022-10-26T18:46:33.097Z,12.33
2022-10-26T18:49:00.728Z,12.30
2022-10-26T18:51:32.740Z,12.29
2022-10-26T18:54:00.230Z,12.18
2022-10-26T18:56:27.244Z,12.16
2022-10-26T18:58:58.372Z,12.16
2022-10-26T19:01:29.508Z,12.22
2022-10-26T19:04:02.299Z,12.23
2022-10-26T19:06:35.300Z,12.18
2022-10-26T19:09:03.648Z,12.19
2022-10-26T19:11:31.795Z,12.24
2022-10-26T19:13:58.675Z,12.12
2022-10-26T19:16:49.853Z,11.84
2022-10-26T19:19:18.778Z,11.67
2022-10-26T19:21:48.080Z,11.63
2022-10-26T19:24:21.448Z,11.67
2022-10-26T19:26:50.617Z,11.63
2022-10-26T19:29:19.062Z,11.59
2022-10-26T19:31:47.684Z,11.61
2022-10-26T19:34:15.873Z,11.70
2022-10-26T19:36:44.966Z,11.79
2022-10-26T19:39:16.458Z,11.76
2022-10-26T19:41:44.745Z,11.61
2022-10-26T19:44:12.333Z,11.58
2022-10-26T19:46:39.737Z,11.55
2022-10-26T19:49:06.905Z,11.58
2022-10-26T19:51:33.710Z,11.56
2022-10-26T19:54:03.716Z,11.53
2022-10-26T19:56:31.763Z,11.49
2022-10-26T19:58:58.388Z,11.41
2022-10-26T20:01:25.034Z,11.37
2022-10-26T20:03:52.084Z,11.26
2022-10-26T20:06:19.133Z,11.27
2022-10-26T20:08:48.712Z,11.20
2022-10-26T20:11:17.689Z,11.17
2022-10-26T20:13:46.494Z,11.22
2022-10-26T20:16:15.513Z,11.23
2022-10-26T20:18:45.739Z,11.21
2022-10-26T20:21:15.535Z,11.19
2022-10-26T20:23:43.387Z,11.17
2022-10-26T20:26:16.458Z,11.04
2022-10-26T20:28:47.716Z,10.84
2022-10-26T20:31:14.437Z,10.90
2022-10-26T20:33:40.913Z,11.02
2022-10-26T20:36:07.952Z,11.10
2022-10-26T20:38:34.996Z,11.02
2022-10-26T20:41:04.876Z,10.95
2022-10-26T20:43:35.191Z,10.86
2022-10-26T20:46:01.978Z,10.87
2022-10-26T20:48:28.832Z,10.83
2022-10-26T20:51:20.835Z,10.79
2022-10-26T20:54:03.727Z,10.85
2022-10-26T20:56:32.932Z,10.89
2022-10-26T20:59:03.018Z,10.87
2022-10-26T21:01:34.735Z,10.83
2022-10-26T21:04:03.863Z,10.75
2022-10-26T21:06:39.596Z,10.65
2022-10-26T21:09:07.239Z,10.58
2022-10-26T21:11:33.709Z,10.56
2022-10-26T21:14:00.892Z,10.62
2022-10-26T21:16:27.329Z,10.67
2022-10-26T21:18:53.805Z,10.62
2022-10-26T21:21:20.351Z,10.49
2022-10-26T21:23:46.859Z,10.50
2022-10-26T21:26:13.667Z,10.52
2022-10-26T21:28:45.670Z,10.51
2022-10-26T21:31:15.562Z,10.47
2022-10-26T21:33:42.906Z,10.51
2022-10-26T21:36:14.815Z,10.52
2022-10-26T21:38:44.601Z,10.42
2022-10-26T21:41:20.666Z,10.32
2022-10-26T21:43:59.185Z,10.33
2022-10-26T21:46:37.847Z,10.38
2022-10-26T21:49:04.884Z,10.39
2022-10-26T21:51:31.346Z,10.20
2022-10-26T21:53:58.309Z,10.07
2022-10-26T21:56:24.762Z,9.93
2022-10-26T21:58:51.337Z,9.98
2022-10-26T22:01:21.228Z,10.06
2022-10-26T22:03:49.107Z,9.98
2022-10-26T22:08:47.927Z,9.99
2022-10-26T22:11:18.556Z,10.01
2022-10-26T22:13:47.941Z,10.06
2022-10-26T22:16:20.801Z,10.04
2022-10-26T22:18:49.703Z,10.00
2022-10-26T22:21:18.838Z,9.93
2022-10-26T22:23:45.902Z,9.97
2022-10-26T22:26:16.411Z,9.88
2022-10-26T22:28:46.168Z,9.81
2022-10-26T22:31:20.482Z,9.82
2022-10-26T22:34:01.947Z,9.87
2022-10-26T22:36:32.207Z,9.94
2022-10-26T22:38:58.732Z,9.79
2022-10-26T22:41:26.010Z,9.65
2022-10-26T22:43:52.532Z,9.60
2022-10-26T22:46:28.715Z,9.47
2022-10-26T22:48:58.708Z,9.49
2022-10-26T22:51:29.369Z,9.59
2022-10-26T22:53:58.704Z,9.62
2022-10-26T22:58:58.895Z,9.48
2022-10-26T23:01:31.259Z,9.41
2022-10-26T23:03:58.345Z,9.38
2022-10-26T23:06:28.191Z,9.30
2022-10-26T23:08:54.882Z,9.33
2022-10-26T23:11:24.092Z,9.35
2022-10-26T23:14:01.013Z,9.21
2022-10-26T23:16:29.766Z,9.27
2022-10-26T23:18:57.487Z,9.28
2022-10-26T23:23:57.393Z,9.25
2022-10-26T23:26:24.295Z,9.32
2022-10-26T23:28:50.822Z,9.41
2022-10-26T23:31:21.763Z,9.47
2022-10-26T23:33:53.400Z,9.49
2022-10-26T23:36:20.325Z,9.43
2022-10-26T23:38:47.904Z,9.43
2022-10-26T23:41:15.051Z,9.37
2022-10-26T23:43:41.911Z,9.25
2022-10-26T23:46:09.047Z,9.17
2022-10-26T23:48:35.476Z,9.22
2022-10-26T23:51:02.015Z,9.26
2022-10-26T23:53:28.559Z,9.05
2022-10-26T23:55:55.053Z,9.00
2022-10-26T23:58:21.556Z,9.00
